Time;durP1;ratioP1;P1;durP2;ratioP2;P2;SDS_P1;SDS_P2;PMS_P1;PMS_P2;Temp;Humidity;BMP_temperature;BMP_pressure;BME280_temperature;BME280_humidity;BME280_pressure;Samples;Min_cycle;Max_cycle;Signal;HPM_P1;HPM_P2
2021/12/01 00:01:48;;;;;;;3.63;3.23;;;9.60;99.90;;;;;;5074416;28;20458;-82
2021/12/01 00:04:17;;;;;;;4.57;3.97;;;9.50;99.90;;;;;;5070435;28;20443;-82
2021/12/01 00:06:43;;;;;;;4.03;3.63;;;9.50;99.90;;;;;;5075014;28;20537;-82
2021/12/01 00:09:10;;;;;;;4.87;4.30;;;9.50;99.90;;;;;;5073202;28;20464;-82
2021/12/01 00:11:37;;;;;;;3.77;3.00;;;9.50;99.90;;;;;;5073265;28;20446;-82
2021/12/01 00:14:04;;;;;;;3.40;3.07;;;9.50;99.90;;;;;;5075240;28;20449;-82
2021/12/01 00:16:31;;;;;;;3.10;2.53;;;9.50;99.90;;;;;;5069114;28;20487;-80
2021/12/01 00:18:58;;;;;;;3.03;2.33;;;9.50;99.90;;;;;;5072194;28;20472;-81
2021/12/01 00:21:26;;;;;;;2.60;2.17;;;9.50;99.90;;;;;;5069643;28;20480;-81
2021/12/01 00:23:53;;;;;;;3.00;2.70;;;9.40;99.90;;;;;;5073420;28;20453;-82
2021/12/01 00:26:20;;;;;;;2.60;2.30;;;9.50;99.90;;;;;;5067554;28;20454;-81
2021/12/01 00:28:46;;;;;;;3.30;2.67;;;9.40;99.90;;;;;;5071826;28;20482;-81
2021/12/01 00:31:13;;;;;;;3.47;3.17;;;9.40;99.90;;;;;;5070659;28;20436;-83
2021/12/01 00:33:41;;;;;;;3.60;2.83;;;9.40;99.90;;;;;;5072130;28;20458;-84
2021/12/01 00:36:13;;;;;;;3.43;2.80;;;9.40;99.90;;;;;;5073173;28;20558;-83
2021/12/01 00:38:42;;;;;;;3.00;2.20;;;9.30;99.90;;;;;;5078888;28;20446;-81
2021/12/01 00:41:09;;;;;;;3.57;2.30;;;9.30;99.90;;;;;;5078635;28;20444;-80
2021/12/01 00:43:39;;;;;;;3.10;2.47;;;9.30;99.90;;;;;;5079704;28;20457;-81
2021/12/01 00:46:13;;;;;;;4.20;2.47;;;9.30;99.90;;;;;;5075626;28;20443;-82
2021/12/01 00:48:40;;;;;;;4.00;2.23;;;9.30;99.90;;;;;;5083312;28;20455;-82
2021/12/01 00:51:07;;;;;;;2.37;2.03;;;9.30;99.90;;;;;;5068593;28;20439;-82
2021/12/01 00:53:34;;;;;;;3.07;2.30;;;9.20;99.90;;;;;;5083148;28;20444;-82
2021/12/01 00:56:02;;;;;;;2.80;2.10;;;9.20;99.90;;;;;;5072117;28;21006;-83
2021/12/01 00:58:29;;;;;;;2.80;2.20;;;9.30;99.90;;;;;;5076868;28;20447;-81
2021/12/01 01:00:56;;;;;;;9.77;2.50;;;9.20;99.90;;;;;;5075773;28;20494;-82
2021/12/01 01:03:23;;;;;;;4.10;2.90;;;9.20;99.90;;;;;;5076521;28;21000;-82
2021/12/01 01:05:50;;;;;;;3.23;2.40;;;9.20;99.90;;;;;;5083916;28;20453;-82
2021/12/01 01:08:18;;;;;;;3.23;2.70;;;9.20;99.90;;;;;;5075615;28;20455;-82
2021/12/01 01:11:09;;;;;;;3.10;2.17;;;9.30;99.90;;;;;;5084328;28;20480;-83
2021/12/01 01:16:25;;;;;;;3.60;2.33;;;9.30;99.90;;;;;;5079646;28;20572;-80
2021/12/01 01:18:55;;;;;;;3.70;2.87;;;9.30;99.90;;;;;;5086912;28;20500;-85
2021/12/01 01:21:23;;;;;;;3.20;2.40;;;9.30;99.90;;;;;;5082454;28;20573;-83
2021/12/01 01:23:51;;;;;;;3.10;2.07;;;9.20;99.90;;;;;;5087959;28;20451;-81
2021/12/01 01:26:20;;;;;;;4.40;2.17;;;9.30;99.90;;;;;;5084833;28;20514;-83
2021/12/01 01:28:49;;;;;;;2.67;1.70;;;9.30;99.90;;;;;;5086948;28;20856;-83
2021/12/01 01:31:20;;;;;;;2.63;1.70;;;9.30;99.90;;;;;;5085425;28;20456;-83
2021/12/01 01:33:47;;;;;;;3.77;2.00;;;9.30;99.90;;;;;;5078298;28;20484;-83
2021/12/01 01:36:14;;;;;;;3.20;1.73;;;9.30;99.90;;;;;;5069196;28;20489;-84
2021/12/01 01:38:41;;;;;;;4.90;1.40;;;9.20;99.90;;;;;;5082531;28;20457;-85
2021/12/01 01:41:11;;;;;;;2.97;2.03;;;9.30;99.90;;;;;;5072858;28;20458;-84
2021/12/01 01:43:40;;;;;;;3.60;1.90;;;9.30;99.90;;;;;;5071278;28;20459;-84
2021/12/01 01:46:08;;;;;;;3.43;2.00;;;9.30;99.90;;;;;;5073567;28;20543;-84
2021/12/01 01:48:45;;;;;;;2.97;1.87;;;9.30;99.90;;;;;;5064380;28;20460;-85
2021/12/01 01:51:12;;;;;;;3.03;2.03;;;9.20;99.90;;;;;;5062870;28;20524;-84
2021/12/01 01:53:39;;;;;;;3.33;1.83;;;9.30;99.90;;;;;;5067459;28;20448;-85
2021/12/01 01:56:07;;;;;;;2.67;1.80;;;9.30;99.90;;;;;;5075340;28;20483;-86
2021/12/01 01:58:35;;;;;;;3.13;1.90;;;9.30;99.90;;;;;;5087069;28;20461;-84
2021/12/01 02:01:07;;;;;;;2.50;1.50;;;9.30;99.90;;;;;;5079204;28;20462;-84
2021/12/01 02:03:38;;;;;;;2.93;1.77;;;9.30;99.90;;;;;;5067215;28;20451;-85
2021/12/01 02:06:06;;;;;;;4.10;1.70;;;9.30;99.90;;;;;;5072781;28;20452;-85
2021/12/01 02:08:35;;;;;;;2.50;1.37;;;9.30;99.90;;;;;;5086621;28;20486;-85
2021/12/01 02:11:04;;;;;;;2.93;1.77;;;9.30;99.90;;;;;;5078503;28;20518;-86
2021/12/01 02:13:32;;;;;;;3.30;1.60;;;9.30;99.90;;;;;;5067934;28;20448;-85
2021/12/01 02:16:00;;;;;;;2.63;1.67;;;9.30;99.90;;;;;;5063705;28;20538;-84
2021/12/01 02:18:28;;;;;;;2.50;1.60;;;9.30;99.90;;;;;;5068155;28;20446;-84
2021/12/01 02:21:08;;;;;;;2.73;1.67;;;9.30;99.90;;;;;;5081010;28;20470;-84
2021/12/01 02:23:36;;;;;;;3.10;1.40;;;9.20;99.90;;;;;;5079411;28;20464;-85
2021/12/01 02:26:04;;;;;;;2.73;1.90;;;9.20;99.90;;;;;;5063161;28;20451;-86
2021/12/01 02:28:31;;;;;;;2.43;1.50;;;9.20;99.90;;;;;;5063600;28;20453;-86
2021/12/01 02:30:58;;;;;;;2.37;1.47;;;9.20;99.90;;;;;;5079761;28;20471;-86
2021/12/01 02:33:26;;;;;;;3.37;1.50;;;9.20;99.90;;;;;;5073968;28;20458;-84
2021/12/01 02:35:53;;;;;;;5.13;2.33;;;9.20;99.90;;;;;;5062197;28;20449;-86
2021/12/01 02:38:21;;;;;;;2.20;1.40;;;9.20;99.90;;;;;;5072765;28;20490;-85
2021/12/01 02:40:49;;;;;;;3.17;1.67;;;9.10;99.90;;;;;;5080735;28;20478;-85
2021/12/01 02:43:16;;;;;;;2.27;1.37;;;9.10;99.90;;;;;;5078190;28;20458;-85
2021/12/01 02:45:43;;;;;;;3.00;1.53;;;9.10;99.90;;;;;;5059714;28;20479;-86
2021/12/01 02:48:12;;;;;;;2.73;1.40;;;9.20;99.90;;;;;;5077874;28;20485;-85
2021/12/01 02:50:42;;;;;;;2.03;1.33;;;9.20;99.90;;;;;;5087494;28;20488;-85
2021/12/01 02:53:09;;;;;;;5.30;2.13;;;9.20;99.90;;;;;;5075208;28;20520;-86
2021/12/01 02:55:41;;;;;;;2.47;1.47;;;9.20;99.90;;;;;;5076387;28;20514;-84
2021/12/01 02:58:08;;;;;;;3.00;1.80;;;9.20;99.90;;;;;;5086639;28;20493;-85
2021/12/01 03:00:35;;;;;;;4.03;2.30;;;9.20;99.90;;;;;;5072500;28;20479;-85
2021/12/01 03:03:02;;;;;;;2.87;1.77;;;9.10;99.90;;;;;;5076885;28;20447;-84
2021/12/01 03:05:29;;;;;;;2.40;1.80;;;9.10;99.90;;;;;;5078094;28;20447;-86
2021/12/01 03:07:57;;;;;;;3.27;2.10;;;9.10;99.90;;;;;;5065949;28;20485;-86
2021/12/01 03:10:24;;;;;;;2.83;2.00;;;9.20;99.90;;;;;;5066032;28;20476;-85
2021/12/01 03:12:52;;;;;;;2.97;2.00;;;9.20;99.90;;;;;;5067375;28;20459;-85
2021/12/01 03:15:19;;;;;;;3.23;2.47;;;9.10;99.90;;;;;;5069258;28;20459;-85
2021/12/01 03:17:46;;;;;;;3.47;2.40;;;9.20;99.90;;;;;;5083114;28;21010;-86
2021/12/01 03:20:15;;;;;;;4.40;3.30;;;9.10;99.90;;;;;;5074337;28;20478;-87
2021/12/01 03:22:42;;;;;;;3.93;2.80;;;9.10;99.90;;;;;;5065622;28;20450;-85
2021/12/01 03:25:11;;;;;;;4.50;3.47;;;9.00;99.90;;;;;;5083389;28;20457;-85
2021/12/01 03:27:38;;;;;;;4.50;3.50;;;9.10;99.90;;;;;;5081600;28;20457;-86
2021/12/01 03:30:08;;;;;;;3.87;3.27;;;9.00;99.90;;;;;;5062371;28;20853;-86
2021/12/01 03:32:35;;;;;;;4.83;3.97;;;9.00;99.90;;;;;;5071215;28;20526;-86
2021/12/01 03:35:05;;;;;;;5.37;3.83;;;9.00;99.90;;;;;;5085083;28;20461;-85
2021/12/01 03:37:32;;;;;;;7.23;3.50;;;8.90;99.90;;;;;;5082780;28;20489;-87
2021/12/01 03:39:59;;;;;;;9.37;4.50;;;8.90;99.90;;;;;;5060495;28;20471;-86
2021/12/01 03:42:26;;;;;;;4.97;4.10;;;8.90;99.90;;;;;;5072957;28;20463;-86
2021/12/01 03:44:53;;;;;;;4.30;3.53;;;8.90;99.90;;;;;;5080270;28;20443;-86
2021/12/01 03:47:21;;;;;;;4.87;3.87;;;8.80;99.90;;;;;;5068208;28;20988;-85
2021/12/01 03:49:48;;;;;;;4.87;3.57;;;8.80;99.90;;;;;;5077204;28;20475;-85
2021/12/01 03:52:16;;;;;;;4.77;4.03;;;8.80;99.90;;;;;;5079967;28;20548;-86
2021/12/01 03:54:43;;;;;;;8.47;4.40;;;8.80;99.90;;;;;;5080547;28;20458;-87
2021/12/01 03:57:10;;;;;;;5.13;4.30;;;8.80;99.90;;;;;;5070918;28;20487;-86
2021/12/01 03:59:37;;;;;;;7.10;3.60;;;8.80;99.90;;;;;;5061945;28;20554;-85
2021/12/01 04:02:04;;;;;;;5.33;4.00;;;8.80;99.90;;;;;;5070660;28;20451;-86
2021/12/01 04:04:33;;;;;;;5.70;4.30;;;8.80;99.90;;;;;;5079520;28;20946;-86
2021/12/01 04:07:00;;;;;;;8.43;4.77;;;8.80;99.90;;;;;;5070822;28;20448;-85
2021/12/01 04:09:28;;;;;;;6.17;4.83;;;8.80;99.90;;;;;;5075716;28;20473;-87
2021/12/01 04:11:54;;;;;;;7.23;4.63;;;8.80;99.90;;;;;;5073298;28;20456;-86
2021/12/01 04:14:24;;;;;;;6.63;4.40;;;8.70;99.90;;;;;;5079702;28;20447;-85
2021/12/01 04:16:51;;;;;;;7.07;4.43;;;8.70;99.90;;;;;;5073185;28;20505;-86
2021/12/01 04:19:18;;;;;;;6.47;4.80;;;8.60;99.90;;;;;;5079568;28;20481;-86
2021/12/01 04:21:46;;;;;;;6.37;5.03;;;8.60;99.90;;;;;;5073820;28;20459;-86
2021/12/01 04:24:13;;;;;;;6.43;5.43;;;8.60;99.90;;;;;;5079096;28;20455;-85
2021/12/01 04:26:40;;;;;;;8.60;5.20;;;8.50;99.90;;;;;;5078744;28;20454;-86
2021/12/01 04:29:07;;;;;;;7.57;4.83;;;8.50;99.90;;;;;;5075693;28;20554;-87
2021/12/01 04:31:36;;;;;;;7.67;5.30;;;8.50;99.90;;;;;;5082532;28;20951;-86
2021/12/01 04:34:04;;;;;;;12.10;5.07;;;8.50;99.90;;;;;;5083398;28;20471;-85
2021/12/01 04:36:34;;;;;;;6.33;5.23;;;8.50;99.90;;;;;;5084177;28;20452;-85
2021/12/01 04:39:05;;;;;;;7.30;4.57;;;8.50;99.90;;;;;;5066046;28;20488;-86
2021/12/01 04:41:37;;;;;;;5.80;4.70;;;8.50;99.90;;;;;;5062923;28;20458;-85
2021/12/01 04:44:08;;;;;;;5.00;4.50;;;8.50;99.90;;;;;;5071789;28;20447;-86
2021/12/01 04:46:40;;;;;;;7.00;4.33;;;8.60;99.90;;;;;;5071531;28;20448;-86
2021/12/01 04:49:07;;;;;;;6.73;4.80;;;8.60;99.90;;;;;;5058414;28;21069;-87
2021/12/01 04:51:34;;;;;;;5.10;4.13;;;8.60;99.90;;;;;;5065209;28;20454;-86
2021/12/01 04:54:03;;;;;;;6.87;5.60;;;8.60;99.90;;;;;;5078719;28;20479;-86
2021/12/01 04:56:30;;;;;;;8.00;4.83;;;8.60;99.90;;;;;;5076431;28;20941;-85
2021/12/01 04:58:57;;;;;;;8.53;4.80;;;8.70;99.90;;;;;;5062534;28;20498;-85
2021/12/01 05:01:24;;;;;;;7.37;5.00;;;8.70;99.90;;;;;;5061489;28;20482;-86
2021/12/01 05:03:51;;;;;;;7.17;4.50;;;8.70;99.90;;;;;;5078808;28;20454;-85
2021/12/01 05:06:19;;;;;;;10.63;4.30;;;8.80;99.90;;;;;;5076770;28;20448;-86
2021/12/01 05:08:46;;;;;;;6.30;4.53;;;8.80;99.90;;;;;;5078283;28;20443;-85
2021/12/01 05:11:14;;;;;;;6.40;4.07;;;8.80;99.90;;;;;;5065756;28;20454;-86
2021/12/01 05:13:41;;;;;;;5.30;4.50;;;8.80;99.90;;;;;;5060401;28;20454;-86
2021/12/01 05:16:08;;;;;;;6.40;3.60;;;8.80;99.90;;;;;;5063794;28;20538;-87
2021/12/01 05:18:35;;;;;;;7.57;3.77;;;8.90;99.90;;;;;;5056896;28;20832;-87
2021/12/01 05:21:02;;;;;;;4.60;3.10;;;8.90;99.90;;;;;;5051749;28;20959;-86
2021/12/01 05:23:28;;;;;;;7.70;3.70;;;8.90;99.90;;;;;;5052270;28;20837;-86
2021/12/01 05:25:55;;;;;;;8.00;4.27;;;8.80;99.90;;;;;;5052951;28;20448;-87
2021/12/01 05:28:24;;;;;;;5.93;3.27;;;8.80;99.90;;;;;;5064030;28;20465;-85
2021/12/01 05:30:50;;;;;;;4.43;2.60;;;8.70;99.90;;;;;;5066289;28;20471;-80
2021/12/01 05:33:17;;;;;;;5.80;3.07;;;8.70;99.90;;;;;;5073829;28;20455;-81
2021/12/01 05:35:46;;;;;;;4.20;2.93;;;8.70;99.90;;;;;;5073765;28;21001;-83
2021/12/01 05:38:13;;;;;;;4.77;2.97;;;8.70;99.90;;;;;;5076740;28;20506;-80
2021/12/01 05:40:40;;;;;;;5.93;2.73;;;8.70;99.90;;;;;;5075141;28;20477;-80
2021/12/01 05:43:07;;;;;;;3.73;2.40;;;8.70;99.90;;;;;;5070234;28;20444;-77
2021/12/01 05:45:36;;;;;;;3.80;2.53;;;9.00;99.90;;;;;;5071150;28;20447;-80
2021/12/01 05:48:03;;;;;;;5.10;2.63;;;9.00;99.90;;;;;;5065616;28;20447;-79
2021/12/01 05:50:30;;;;;;;3.03;1.83;;;8.90;99.90;;;;;;5060265;28;20477;-80
2021/12/01 05:52:57;;;;;;;4.00;2.17;;;9.00;99.90;;;;;;5071252;28;20550;-79
2021/12/01 05:55:24;;;;;;;5.33;3.13;;;9.00;99.90;;;;;;5072621;28;20443;-81
2021/12/01 05:57:50;;;;;;;4.47;2.10;;;9.00;99.90;;;;;;5065500;28;20998;-80
2021/12/01 06:00:19;;;;;;;3.07;2.00;;;9.00;99.90;;;;;;5070128;28;20473;-82
2021/12/01 06:02:50;;;;;;;3.77;1.80;;;9.10;99.90;;;;;;5072726;28;20461;-81
2021/12/01 06:05:17;;;;;;;3.37;2.10;;;9.00;99.90;;;;;;5072394;28;20460;-80
2021/12/01 06:07:43;;;;;;;3.97;2.00;;;9.10;99.90;;;;;;5081765;28;20445;-81
2021/12/01 06:10:11;;;;;;;5.93;2.33;;;9.00;99.90;;;;;;5084481;28;20469;-79
2021/12/01 06:12:39;;;;;;;3.10;1.87;;;9.00;99.90;;;;;;5077732;28;20526;-82
2021/12/01 06:15:08;;;;;;;3.00;1.87;;;8.90;99.90;;;;;;5067374;28;21016;-81
2021/12/01 06:17:36;;;;;;;3.50;2.07;;;8.90;99.90;;;;;;5057750;28;20598;-80
2021/12/01 06:20:06;;;;;;;4.73;2.47;;;8.80;99.90;;;;;;5069638;28;20470;-81
2021/12/01 06:22:33;;;;;;;4.53;2.70;;;8.80;99.90;;;;;;5070025;28;20943;-81
2021/12/01 06:25:00;;;;;;;5.50;2.73;;;8.80;99.90;;;;;;5071991;28;20841;-81
2021/12/01 06:27:27;;;;;;;3.50;2.27;;;8.90;99.90;;;;;;5066482;28;20461;-80
2021/12/01 06:29:55;;;;;;;3.17;2.10;;;8.90;99.90;;;;;;5065848;28;21181;-81
2021/12/01 06:32:24;;;;;;;4.10;2.13;;;8.90;99.90;;;;;;5062948;28;20459;-79
2021/12/01 06:34:51;;;;;;;5.30;2.00;;;8.90;99.90;;;;;;5066710;28;20464;-82
2021/12/01 06:37:19;;;;;;;5.10;2.07;;;8.80;99.90;;;;;;5066914;28;20451;-81
2021/12/01 06:39:47;;;;;;;2.60;2.03;;;8.80;99.90;;;;;;5069647;28;20469;-83
2021/12/01 06:42:14;;;;;;;4.43;2.10;;;8.80;99.90;;;;;;5068443;28;20444;-81
2021/12/01 06:44:41;;;;;;;4.90;2.63;;;8.80;99.90;;;;;;5061154;28;20444;-81
2021/12/01 06:47:08;;;;;;;4.03;2.50;;;8.80;99.90;;;;;;5070368;28;20439;-81
2021/12/01 06:49:35;;;;;;;3.90;2.20;;;8.80;99.90;;;;;;5075042;28;20478;-81
2021/12/01 06:52:02;;;;;;;5.97;2.40;;;8.70;99.90;;;;;;5076280;28;20442;-81
2021/12/01 06:54:30;;;;;;;3.67;2.33;;;8.60;99.90;;;;;;5076809;28;20454;-82
2021/12/01 06:56:57;;;;;;;4.20;2.57;;;8.40;99.90;;;;;;5078003;28;20457;-82
2021/12/01 06:59:24;;;;;;;5.87;3.20;;;8.40;99.90;;;;;;5073696;28;20487;-81
2021/12/01 07:01:51;;;;;;;3.47;2.60;;;8.30;99.90;;;;;;5061814;28;20448;-80
2021/12/01 07:04:17;;;;;;;5.43;3.30;;;8.20;99.90;;;;;;5068694;28;20463;-81
2021/12/01 07:06:44;;;;;;;6.37;3.10;;;8.00;99.90;;;;;;5065262;28;20445;-83
2021/12/01 07:09:17;;;;;;;4.80;3.40;;;8.00;99.90;;;;;;5074411;28;20465;-81
2021/12/01 07:11:46;;;;;;;5.33;3.37;;;7.90;99.90;;;;;;5073562;28;20451;-81
2021/12/01 07:14:12;;;;;;;4.07;3.37;;;7.90;99.90;;;;;;5071065;28;20440;-81
2021/12/01 07:16:39;;;;;;;6.70;3.43;;;7.80;99.90;;;;;;5072076;28;20830;-81
2021/12/01 07:19:07;;;;;;;6.40;4.07;;;7.80;99.90;;;;;;5069949;28;20489;-80
2021/12/01 07:21:35;;;;;;;4.57;2.70;;;7.80;99.90;;;;;;5068774;28;20512;-80
2021/12/01 07:24:02;;;;;;;4.60;3.70;;;7.80;99.90;;;;;;5075328;28;20458;-79
2021/12/01 07:26:29;;;;;;;6.93;3.87;;;7.80;99.90;;;;;;5078276;28;20455;-82
2021/12/01 07:28:57;;;;;;;3.60;2.67;;;7.80;99.90;;;;;;5060061;28;20444;-81
2021/12/01 07:31:24;;;;;;;4.13;3.50;;;7.80;99.90;;;;;;5056619;28;20450;-81
2021/12/01 07:33:51;;;;;;;4.57;3.50;;;7.80;99.90;;;;;;5069921;28;21160;-81
2021/12/01 07:36:18;;;;;;;4.90;3.73;;;7.80;99.90;;;;;;5075222;28;20455;-81
2021/12/01 07:38:45;;;;;;;5.27;3.20;;;7.80;99.90;;;;;;5075071;28;20841;-82
2021/12/01 07:41:12;;;;;;;5.03;3.50;;;7.80;99.90;;;;;;5060749;28;20451;-82
2021/12/01 07:43:38;;;;;;;3.53;2.77;;;7.80;99.90;;;;;;5067349;28;20458;-82
2021/12/01 07:46:06;;;;;;;4.10;3.00;;;7.80;99.90;;;;;;5076091;28;20454;-80
2021/12/01 07:48:33;;;;;;;3.90;2.57;;;7.80;99.90;;;;;;5075232;28;20454;-80
2021/12/01 07:51:00;;;;;;;4.33;3.17;;;7.80;99.90;;;;;;5074874;28;20480;-81
2021/12/01 07:53:27;;;;;;;4.10;2.57;;;7.80;99.90;;;;;;5071839;28;20452;-81
2021/12/01 07:55:54;;;;;;;3.67;2.30;;;7.90;99.90;;;;;;5070980;28;20840;-81
2021/12/01 07:58:21;;;;;;;3.23;2.20;;;7.90;99.90;;;;;;5066573;28;20492;-80
2021/12/01 08:00:48;;;;;;;4.40;2.93;;;7.90;99.90;;;;;;5069341;28;20496;-82
2021/12/01 08:03:16;;;;;;;4.00;2.23;;;7.90;99.90;;;;;;5073341;28;20446;-82
2021/12/01 08:05:43;;;;;;;3.00;1.97;;;7.90;99.90;;;;;;5077579;28;20454;-82
2021/12/01 08:08:10;;;;;;;3.73;2.67;;;7.90;99.90;;;;;;5073027;28;20461;-80
2021/12/01 08:10:37;;;;;;;4.33;2.40;;;8.00;99.90;;;;;;5061703;28;20500;-80
2021/12/01 08:13:04;;;;;;;3.70;2.20;;;7.90;99.90;;;;;;5071201;28;20461;-81
2021/12/01 08:15:32;;;;;;;2.93;2.07;;;8.00;99.90;;;;;;5069437;28;20447;-82
2021/12/01 08:17:59;;;;;;;2.83;2.10;;;8.00;99.90;;;;;;5075026;28;20452;-83
2021/12/01 08:20:27;;;;;;;3.10;1.70;;;8.00;99.90;;;;;;5060359;28;20952;-81
2021/12/01 08:22:54;;;;;;;3.60;2.27;;;8.00;99.90;;;;;;5062343;28;20460;-81
2021/12/01 08:25:22;;;;;;;3.53;1.63;;;8.10;99.90;;;;;;5055985;28;20547;-81
2021/12/01 08:27:48;;;;;;;4.27;1.60;;;8.10;99.90;;;;;;5058436;28;20462;-81
2021/12/01 08:30:16;;;;;;;3.10;1.57;;;8.10;99.90;;;;;;5057376;28;20462;-82
2021/12/01 08:32:46;;;;;;;3.07;1.10;;;8.20;99.90;;;;;;5057253;28;20451;-82
2021/12/01 08:35:13;;;;;;;3.07;1.00;;;8.20;99.90;;;;;;5065503;28;20458;-82
2021/12/01 08:37:42;;;;;;;2.00;1.10;;;8.30;99.90;;;;;;5060697;28;20460;-81
2021/12/01 08:40:13;;;;;;;3.23;1.03;;;8.40;99.90;;;;;;5053237;28;20492;-82
2021/12/01 08:42:40;;;;;;;2.10;1.10;;;8.30;99.90;;;;;;5056699;28;20467;-80
2021/12/01 08:45:07;;;;;;;1.63;0.87;;;8.40;99.90;;;;;;5056298;28;20954;-81
2021/12/01 08:47:34;;;;;;;2.33;1.00;;;8.40;99.90;;;;;;5064320;28;20454;-81
2021/12/01 08:50:00;;;;;;;1.70;0.80;;;8.30;99.90;;;;;;5062943;28;20472;-82
2021/12/01 08:52:27;;;;;;;2.37;1.10;;;8.40;99.90;;;;;;5061709;28;21190;-81
2021/12/01 08:54:56;;;;;;;3.60;0.90;;;8.40;99.90;;;;;;5060551;28;20455;-81
2021/12/01 08:57:23;;;;;;;1.90;1.07;;;8.40;99.90;;;;;;5056786;28;20477;-79
2021/12/01 08:59:50;;;;;;;2.87;0.80;;;8.40;99.90;;;;;;5059791;28;20486;-80
2021/12/01 09:02:17;;;;;;;2.07;0.97;;;8.50;99.90;;;;;;5064925;28;20443;-80
2021/12/01 09:04:44;;;;;;;1.80;0.70;;;8.50;99.90;;;;;;5063505;28;20439;-80
2021/12/01 09:07:11;;;;;;;1.97;0.93;;;8.50;99.90;;;;;;5054996;28;20439;-80
2021/12/01 09:09:38;;;;;;;1.90;0.80;;;8.50;99.90;;;;;;5062169;28;21755;-80
2021/12/01 09:12:07;;;;;;;4.17;0.90;;;8.50;99.90;;;;;;5061752;28;20462;-81
2021/12/01 09:14:34;;;;;;;2.70;0.90;;;8.60;99.90;;;;;;5064664;28;20435;-81
2021/12/01 09:17:01;;;;;;;1.83;0.90;;;8.60;99.90;;;;;;5062859;28;20455;-83
2021/12/01 09:19:28;;;;;;;2.63;1.00;;;8.60;99.90;;;;;;5055444;28;20487;-82
2021/12/01 09:21:55;;;;;;;2.43;1.00;;;8.60;99.90;;;;;;5055330;28;20452;-79
2021/12/01 09:24:22;;;;;;;4.60;1.60;;;8.60;99.90;;;;;;5056101;28;20470;-81
2021/12/01 09:26:50;;;;;;;1.67;0.70;;;8.60;99.90;;;;;;5063499;28;20455;-80
2021/12/01 09:29:19;;;;;;;1.70;0.70;;;8.70;99.90;;;;;;5067503;28;21321;-79
2021/12/01 09:31:46;;;;;;;1.97;1.00;;;8.70;99.90;;;;;;5067218;28;20460;-80
2021/12/01 09:34:13;;;;;;;2.10;0.90;;;8.70;99.90;;;;;;5054523;28;20484;-80
2021/12/01 09:36:39;;;;;;;1.80;1.10;;;8.70;99.90;;;;;;5063924;28;20459;-80
2021/12/01 09:39:07;;;;;;;1.60;0.70;;;8.70;99.90;;;;;;5074431;28;20487;-80
2021/12/01 09:41:34;;;;;;;1.70;0.80;;;9.00;99.90;;;;;;5067406;28;20452;-80
2021/12/01 09:44:01;;;;;;;1.70;0.70;;;8.80;99.90;;;;;;5074492;28;20529;-82
2021/12/01 09:46:30;;;;;;;2.07;0.70;;;8.80;99.90;;;;;;5072999;28;20451;-82
2021/12/01 09:48:58;;;;;;;1.80;0.90;;;8.70;99.90;;;;;;5063828;28;20994;-83
2021/12/01 09:51:25;;;;;;;1.63;0.70;;;9.10;99.90;;;;;;5053562;28;20492;-82
2021/12/01 09:53:54;;;;;;;1.53;0.70;;;8.80;99.90;;;;;;5048699;28;20463;-84
2021/12/01 09:56:22;;;;;;;1.90;0.80;;;8.80;99.90;;;;;;5063519;28;20447;-83
2021/12/01 09:58:48;;;;;;;2.57;0.90;;;8.80;99.90;;;;;;5062760;28;20490;-82
2021/12/01 10:01:18;;;;;;;2.73;0.80;;;8.90;99.90;;;;;;5072279;28;20825;-83
2021/12/01 10:03:50;;;;;;;1.80;0.80;;;8.90;99.90;;;;;;5062898;28;20458;-83
2021/12/01 10:06:18;;;;;;;1.90;0.80;;;8.90;99.90;;;;;;5069350;28;20455;-83
2021/12/01 10:08:47;;;;;;;1.50;0.60;;;8.90;99.90;;;;;;5072975;28;20451;-83
2021/12/01 10:11:15;;;;;;;1.87;0.80;;;8.90;99.90;;;;;;5073261;28;20447;-83
2021/12/01 10:13:45;;;;;;;1.70;0.80;;;8.80;99.90;;;;;;5067566;28;20447;-83
2021/12/01 10:16:13;;;;;;;1.60;0.70;;;8.90;99.90;;;;;;5073030;28;20458;-83
2021/12/01 10:18:42;;;;;;;1.50;0.60;;;8.90;99.90;;;;;;5078928;28;20486;-83
2021/12/01 10:21:12;;;;;;;1.70;0.70;;;8.90;99.90;;;;;;5068978;28;20450;-81
2021/12/01 10:23:44;;;;;;;6.23;1.53;;;8.90;99.90;;;;;;5064568;28;20848;-81
2021/12/01 10:26:18;;;;;;;1.50;0.60;;;8.90;99.90;;;;;;5055769;28;20502;-80
2021/12/01 10:28:47;;;;;;;2.20;0.90;;;8.90;99.90;;;;;;5070264;28;20458;-81
2021/12/01 10:31:15;;;;;;;1.90;0.70;;;8.80;99.90;;;;;;5071119;28;20514;-81
2021/12/01 10:33:43;;;;;;;1.80;0.60;;;8.80;99.90;;;;;;5075253;28;20572;-80
2021/12/01 10:36:12;;;;;;;2.47;0.90;;;8.90;99.90;;;;;;5073367;28;20477;-82
2021/12/01 10:38:43;;;;;;;3.50;0.90;;;8.80;99.90;;;;;;5076497;28;20447;-81
2021/12/01 10:41:12;;;;;;;2.40;1.10;;;8.90;99.90;;;;;;5068584;28;20523;-82
2021/12/01 10:43:42;;;;;;;2.90;1.00;;;8.90;99.90;;;;;;5068901;28;20462;-81
2021/12/01 10:46:11;;;;;;;1.93;0.90;;;9.00;99.90;;;;;;5066554;28;20447;-82
2021/12/01 10:48:40;;;;;;;1.70;0.70;;;8.90;99.90;;;;;;5069817;28;20456;-81
2021/12/01 10:51:07;;;;;;;2.10;0.80;;;8.80;99.90;;;;;;5057624;28;20452;-82
2021/12/01 10:53:35;;;;;;;2.10;0.87;;;8.80;99.90;;;;;;5067353;28;20457;-80
2021/12/01 10:56:05;;;;;;;2.10;0.90;;;8.80;99.90;;;;;;5074481;28;20451;-81
2021/12/01 10:58:34;;;;;;;4.93;0.80;;;8.80;99.90;;;;;;5072292;28;20485;-81
2021/12/01 11:01:02;;;;;;;3.83;1.00;;;8.90;99.90;;;;;;5073094;28;20470;-82
2021/12/01 11:03:32;;;;;;;1.70;0.70;;;8.90;99.90;;;;;;5066541;28;20460;-81
2021/12/01 11:06:08;;;;;;;1.60;0.63;;;9.00;99.90;;;;;;5077645;28;20448;-81
2021/12/01 11:08:39;;;;;;;1.90;0.80;;;9.00;99.90;;;;;;5064460;28;20456;-80
2021/12/01 11:11:08;;;;;;;1.87;1.00;;;9.00;99.90;;;;;;5066567;28;20459;-82
2021/12/01 11:13:35;;;;;;;4.80;0.90;;;9.00;99.90;;;;;;5065406;28;20475;-81
2021/12/01 11:16:06;;;;;;;1.90;0.63;;;9.00;99.90;;;;;;5075451;28;20462;-81
2021/12/01 11:18:35;;;;;;;2.37;0.87;;;9.10;99.90;;;;;;5074762;28;20451;-81
2021/12/01 11:21:07;;;;;;;2.00;0.97;;;9.00;99.90;;;;;;5059076;28;20505;-80
2021/12/01 11:23:35;;;;;;;2.60;0.70;;;9.00;99.90;;;;;;5067036;28;20660;-82
2021/12/01 11:26:06;;;;;;;1.90;0.67;;;9.00;99.90;;;;;;5056979;28;20456;-81
2021/12/01 11:28:35;;;;;;;1.73;0.80;;;9.00;99.90;;;;;;5065348;28;20481;-79
2021/12/01 11:31:05;;;;;;;2.30;0.80;;;9.00;99.90;;;;;;5071487;28;20463;-81
2021/12/01 11:33:32;;;;;;;1.90;0.80;;;9.10;99.90;;;;;;5075768;28;20801;-81
2021/12/01 11:36:01;;;;;;;2.57;0.80;;;9.10;99.90;;;;;;5071690;28;20456;-81
2021/12/01 11:38:28;;;;;;;1.73;0.90;;;9.10;99.90;;;;;;5068466;28;20826;-80
2021/12/01 11:40:56;;;;;;;1.90;0.90;;;9.10;99.90;;;;;;5068055;28;20491;-79
2021/12/01 11:43:26;;;;;;;2.53;1.30;;;9.10;99.90;;;;;;5076260;28;20544;-81
2021/12/01 11:45:54;;;;;;;2.43;1.10;;;9.20;99.90;;;;;;5074012;28;20448;-81
2021/12/01 11:48:24;;;;;;;3.90;1.47;;;9.20;99.90;;;;;;5070403;28;20478;-81
2021/12/01 11:50:58;;;;;;;5.43;2.10;;;9.20;99.90;;;;;;5064618;28;20464;-79
2021/12/01 11:53:32;;;;;;;3.17;1.40;;;9.20;99.90;;;;;;5068014;28;20997;-82
2021/12/01 11:56:02;;;;;;;3.57;1.60;;;9.20;99.90;;;;;;5064863;28;20463;-81
2021/12/01 11:59:05;;;;;;;3.87;2.00;;;9.20;99.90;;;;;;5064737;28;20455;-81
2021/12/01 12:01:47;;;;;;;4.17;1.90;;;9.10;99.90;;;;;;5071625;28;20439;-82
2021/12/01 12:04:19;;;;;;;3.20;2.03;;;9.00;99.90;;;;;;5067156;28;20443;-81
2021/12/01 12:06:48;;;;;;;5.60;2.47;;;9.00;99.90;;;;;;5065574;28;20452;-81
2021/12/01 12:09:16;;;;;;;3.60;2.60;;;9.00;99.90;;;;;;5075371;28;20990;-81
2021/12/01 12:11:44;;;;;;;5.40;3.27;;;8.90;99.90;;;;;;5075109;28;20439;-80
2021/12/01 12:14:15;;;;;;;4.10;2.70;;;9.00;99.90;;;;;;5077054;28;20815;-81
2021/12/01 12:17:02;;;;;;;5.50;3.60;;;8.90;99.90;;;;;;5077037;28;20446;-80
2021/12/01 12:19:50;;;;;;;5.17;3.30;;;8.80;99.90;;;;;;5076218;28;20483;-81
2021/12/01 12:22:22;;;;;;;6.40;2.97;;;8.70;99.90;;;;;;5061419;28;20448;-81
2021/12/01 12:24:52;;;;;;;3.27;2.47;;;8.70;99.90;;;;;;5076312;28;20473;-83
2021/12/01 12:27:46;;;;;;;6.60;3.30;;;8.60;99.90;;;;;;5077134;28;20470;-81
2021/12/01 12:30:16;;;;;;;5.53;2.67;;;8.60;99.90;;;;;;5038642;28;21013;-81
2021/12/01 12:32:46;;;;;;;7.77;3.67;;;8.70;99.90;;;;;;5075927;28;20470;-82
2021/12/01 12:35:15;;;;;;;5.00;3.00;;;8.70;99.90;;;;;;5076285;28;20451;-80
2021/12/01 12:37:44;;;;;;;7.30;2.80;;;8.70;99.90;;;;;;5070826;28;20477;-82
2021/12/01 12:40:31;;;;;;;3.93;2.40;;;8.60;99.90;;;;;;5064880;28;20485;-81
2021/12/01 12:43:10;;;;;;;6.50;2.37;;;8.70;99.90;;;;;;5075654;28;20459;-81
2021/12/01 12:45:38;;;;;;;3.23;2.10;;;8.70;99.90;;;;;;5069495;28;20447;-81
2021/12/01 12:48:25;;;;;;;6.57;3.13;;;8.80;99.90;;;;;;5070649;28;20459;-82
2021/12/01 12:51:19;;;;;;;4.53;1.80;;;8.90;99.90;;;;;;5072591;28;20467;-81
2021/12/01 12:54:15;;;;;;;5.80;2.43;;;9.00;99.90;;;;;;5067726;28;20526;-80
2021/12/01 12:56:45;;;;;;;3.80;2.40;;;9.10;99.90;;;;;;5047812;28;20460;-80
2021/12/01 12:59:23;;;;;;;5.73;2.60;;;9.10;99.90;;;;;;5069500;28;20492;-82
2021/12/01 13:01:52;;;;;;;3.80;2.30;;;9.00;99.90;;;;;;5073321;28;20458;-81
2021/12/01 13:04:57;;;;;;;4.00;2.10;;;9.00;99.90;;;;;;5073506;28;20454;-82
2021/12/01 13:07:39;;;;;;;5.37;2.63;;;9.00;99.90;;;;;;5034295;28;20502;-81
2021/12/01 13:10:09;;;;;;;5.30;2.63;;;9.00;99.90;;;;;;5066380;28;20454;-82